createdAt,value
2019-02-27T00:00:56.872Z,6.30
2019-02-27T00:02:22.765Z,6.37
2019-02-27T00:04:11.490Z,6.58
2019-02-27T00:05:25.431Z,6.35
2019-02-27T00:06:56.005Z,6.17
2019-02-27T00:07:47.596Z,6.87
2019-02-27T00:09:09.633Z,6.12
2019-02-27T00:10:18.048Z,6.40
2019-02-27T00:11:23.472Z,6.47
2019-02-27T00:12:29.606Z,6.42
2019-02-27T00:13:36.340Z,6.80
2019-02-27T00:14:45.448Z,6.35
2019-02-27T00:15:52.878Z,6.80
2019-02-27T00:18:23.601Z,7.28
2019-02-27T00:19:36.183Z,6.45
2019-02-27T00:20:37.029Z,6.62
2019-02-27T00:21:46.937Z,6.70
2019-02-27T00:24:16.690Z,6.87
2019-02-27T00:25:43.625Z,6.55
2019-02-27T00:28:23.447Z,6.75
2019-02-27T00:29:30.909Z,6.12
2019-02-27T00:30:42.963Z,6.62
2019-02-27T00:31:54.828Z,6.40
2019-02-27T00:33:10.195Z,6.85
2019-02-27T00:34:14.763Z,7.15
2019-02-27T00:35:28.127Z,7.20
2019-02-27T00:36:45.976Z,6.58
2019-02-27T00:37:52.667Z,6.53
2019-02-27T00:39:05.589Z,6.92
2019-02-27T00:40:24.617Z,6.42
2019-02-27T00:43:01.218Z,6.72
2019-02-27T00:44:20.512Z,6.92
2019-02-27T00:45:20.682Z,7.15
2019-02-27T00:46:30.536Z,6.87
2019-02-27T00:49:08.739Z,6.62
2019-02-27T00:50:50.543Z,6.00
2019-02-27T00:51:44.650Z,6.30
2019-02-27T00:52:59.838Z,6.47
2019-02-27T00:54:31.447Z,6.20
2019-02-27T00:55:49.138Z,6.33
2019-02-27T00:57:04.913Z,6.83
2019-02-27T00:58:15.375Z,6.10
2019-02-27T00:59:39.325Z,6.58
2019-02-27T01:00:52.336Z,6.35
2019-02-27T01:03:08.584Z,6.65
2019-02-27T01:04:18.058Z,7.47
2019-02-27T01:05:35.694Z,7.22
2019-02-27T01:08:52.871Z,7.42
2019-02-27T01:10:39.850Z,6.58
2019-02-27T01:11:53.958Z,7.20
2019-02-27T01:13:20.869Z,7.10
2019-02-27T01:15:33.253Z,7.33
2019-02-27T01:17:30.509Z,7.80
2019-02-27T01:18:52.787Z,7.97
2019-02-27T01:20:05.835Z,7.60
2019-02-27T01:21:30.613Z,8.18
2019-02-27T01:22:42.011Z,7.55
2019-02-27T01:23:49.229Z,7.92
2019-02-27T01:26:44.613Z,7.35
2019-02-27T01:29:18.103Z,7.75
2019-02-27T01:29:27.900Z,7.70
2019-02-27T01:30:27.499Z,7.75
2019-02-27T01:31:43.617Z,7.42
2019-02-27T01:34:23.629Z,7.30
2019-02-27T01:35:37.888Z,7.22
2019-02-27T01:37:12.357Z,7.50
2019-02-27T01:38:13.110Z,7.22
2019-02-27T01:39:24.519Z,7.95
2019-02-27T01:40:39.341Z,7.28
2019-02-27T01:41:55.277Z,8.18
2019-02-27T01:43:14.667Z,7.58
2019-02-27T01:44:17.441Z,8.53
2019-02-27T01:48:33.643Z,6.60
2019-02-27T01:49:54.305Z,7.08
2019-02-27T01:51:13.963Z,7.58
2019-02-27T01:52:37.743Z,8.43
2019-02-27T01:53:45.253Z,6.78
2019-02-27T01:55:06.923Z,7.05
2019-02-27T01:56:34.683Z,7.00
2019-02-27T01:57:36.804Z,6.90
2019-02-27T01:58:48.501Z,7.45
2019-02-27T01:59:56.789Z,7.10
2019-02-27T02:01:04.643Z,7.12
2019-02-27T02:02:13.623Z,6.87
2019-02-27T02:03:28.555Z,6.58
2019-02-27T02:04:53.768Z,6.83
2019-02-27T02:07:34.898Z,6.42
2019-02-27T02:08:48.828Z,6.67
2019-02-27T02:10:01.667Z,6.83
2019-02-27T02:11:43.545Z,6.60
2019-02-27T02:12:29.337Z,6.47
2019-02-27T02:13:43.245Z,6.58
2019-02-27T02:15:31.927Z,6.87
2019-02-27T02:16:44.526Z,6.60
2019-02-27T02:19:54.007Z,6.80
2019-02-27T02:21:18.962Z,6.30
2019-02-27T02:22:31.956Z,7.47
2019-02-27T02:24:03.294Z,6.65
2019-02-27T02:25:13.538Z,6.40
2019-02-27T02:27:41.442Z,7.10
2019-02-27T02:29:20.333Z,6.15
2019-02-27T02:31:05.012Z,5.70
2019-02-27T02:32:34.151Z,6.55
2019-02-27T02:34:06.315Z,6.15
2019-02-27T02:35:24.725Z,6.95
2019-02-27T02:36:49.523Z,6.67
2019-02-27T02:37:56.020Z,6.85
2019-02-27T02:39:34.592Z,7.17
2019-02-27T02:41:07.771Z,6.70
2019-02-27T02:42:32.423Z,6.20
2019-02-27T02:44:20.563Z,6.20
2019-02-27T02:47:16.878Z,7.10
2019-02-27T02:47:22.461Z,6.35
2019-02-27T02:52:41.675Z,6.20
2019-02-27T02:53:43.493Z,6.58
2019-02-27T03:02:07.088Z,5.85
2019-02-27T03:05:23.657Z,6.50
2019-02-27T03:06:47.369Z,6.00
2019-02-27T03:09:01.873Z,5.70
2019-02-27T03:10:10.830Z,7.30
2019-02-27T03:12:03.838Z,6.28
2019-02-27T03:12:57.904Z,6.00
2019-02-27T03:15:46.939Z,6.58
2019-02-27T03:17:07.813Z,5.80
2019-02-27T03:20:25.897Z,6.33
2019-02-27T03:22:11.172Z,6.80
2019-02-27T03:25:31.741Z,6.62
2019-02-27T03:25:40.136Z,6.40
2019-02-27T03:27:30.957Z,6.62
2019-02-27T03:28:45.411Z,6.83
2019-02-27T03:32:25.395Z,6.33
2019-02-27T03:35:11.351Z,7.12
2019-02-27T03:36:45.640Z,6.12
2019-02-27T03:38:13.876Z,6.85
2019-02-27T03:39:56.346Z,7.10
2019-02-27T03:41:39.770Z,6.83
2019-02-27T03:43:12.782Z,6.78
2019-02-27T03:46:26.082Z,7.37
2019-02-27T03:47:44.096Z,6.70
2019-02-27T03:49:03.694Z,6.72
2019-02-27T03:50:49.802Z,6.58
2019-02-27T03:52:15.147Z,6.80
2019-02-27T03:53:57.337Z,6.70
2019-02-27T03:55:31.808Z,7.17
2019-02-27T03:56:59.941Z,6.85
2019-02-27T03:58:31.469Z,6.70
2019-02-27T04:00:07.065Z,6.90
2019-02-27T04:02:06.086Z,6.75
2019-02-27T04:05:08.390Z,6.65
2019-02-27T04:09:12.271Z,6.78
2019-02-27T04:10:32.685Z,7.67
2019-02-27T04:11:42.580Z,7.22
2019-02-27T04:12:59.198Z,7.37
2019-02-27T04:14:14.449Z,7.28
2019-02-27T04:15:28.082Z,6.78
2019-02-27T04:16:34.773Z,7.30
2019-02-27T04:17:56.466Z,6.83
2019-02-27T04:19:09.473Z,6.95
2019-02-27T04:20:50.166Z,7.50
2019-02-27T04:21:43.283Z,6.95
2019-02-27T04:24:29.659Z,6.53
2019-02-27T04:27:01.857Z,6.70
2019-02-27T04:28:23.170Z,7.53
2019-02-27T04:32:48.036Z,6.42
2019-02-27T04:33:44.305Z,7.65
2019-02-27T04:36:34.824Z,6.95
2019-02-27T04:43:12.132Z,6.50
2019-02-27T04:44:18.996Z,7.35
2019-02-27T04:47:35.786Z,7.35
2019-02-27T04:48:09.061Z,6.65
2019-02-27T04:49:22.042Z,7.03
2019-02-27T04:50:36.863Z,7.62
2019-02-27T04:51:48.139Z,7.17
2019-02-27T04:52:57.664Z,7.05
2019-02-27T04:54:07.740Z,6.80
2019-02-27T04:55:29.521Z,7.22
2019-02-27T04:56:25.153Z,7.25
2019-02-27T05:02:03.294Z,7.95
2019-02-27T05:02:05.400Z,6.90
2019-02-27T05:03:28.631Z,7.85
2019-02-27T05:04:46.098Z,7.45
2019-02-27T05:08:33.041Z,7.60
2019-02-27T05:17:15.044Z,7.60
2019-02-27T05:17:58.861Z,7.37
2019-02-27T05:18:20.120Z,8.20
2019-02-27T05:19:40.216Z,8.63
2019-02-27T05:20:37.406Z,8.40
2019-02-27T05:22:02.777Z,8.43
2019-02-27T05:23:20.275Z,8.75
2019-02-27T05:24:31.097Z,8.25
2019-02-27T05:25:46.772Z,8.03
2019-02-27T05:26:50.259Z,8.50
2019-02-27T05:28:09.680Z,8.03
2019-02-27T05:30:53.155Z,8.83
2019-02-27T05:32:19.875Z,8.88
2019-02-27T05:33:22.659Z,9.40
2019-02-27T05:36:10.872Z,8.83
2019-02-27T05:39:20.995Z,8.93
2019-02-27T05:39:53.767Z,10.00
2019-02-27T05:41:45.523Z,9.55
2019-02-27T05:42:24.223Z,9.93
2019-02-27T05:43:34.982Z,10.53
2019-02-27T05:44:59.140Z,9.60
2019-02-27T05:45:54.225Z,10.43
2019-02-27T05:48:53.302Z,10.23
2019-02-27T05:49:52.089Z,10.28
2019-02-27T05:50:51.731Z,9.45
2019-02-27T05:52:01.560Z,9.58
2019-02-27T05:53:10.649Z,8.85
2019-02-27T05:54:24.075Z,9.68
2019-02-27T05:55:45.382Z,9.65
2019-02-27T05:56:42.450Z,9.33
2019-02-27T05:57:50.931Z,9.85
2019-02-27T05:58:57.140Z,10.00
2019-02-27T06:00:10.350Z,9.88
2019-02-27T06:01:25.456Z,8.78
2019-02-27T06:02:34.120Z,9.20
2019-02-27T06:03:49.446Z,9.75
2019-02-27T06:04:51.224Z,9.20
2019-02-27T06:06:06.697Z,8.65
2019-02-27T06:07:13.975Z,9.20
2019-02-27T06:08:34.852Z,8.93
2019-02-27T06:09:48.922Z,9.55
2019-02-27T06:11:06.489Z,9.28
2019-02-27T06:12:33.660Z,9.50
2019-02-27T06:13:44.963Z,9.30
2019-02-27T06:14:54.715Z,8.48
2019-02-27T06:16:08.921Z,9.00
2019-02-27T06:17:12.867Z,9.70
2019-02-27T06:18:23.560Z,9.65
2019-02-27T06:19:49.082Z,8.98
2019-02-27T06:20:58.292Z,8.90
2019-02-27T06:22:23.090Z,9.43
2019-02-27T06:23:27.695Z,9.68
2019-02-27T06:24:50.806Z,10.38
2019-02-27T06:25:50.320Z,10.20
2019-02-27T06:28:36.496Z,9.70
2019-02-27T06:32:28.237Z,10.08
2019-02-27T06:33:01.479Z,10.45
2019-02-27T06:34:18.639Z,10.93
2019-02-27T06:38:08.261Z,10.03
2019-02-27T06:38:12.353Z,11.48
2019-02-27T06:39:35.304Z,11.12
2019-02-27T06:40:45.339Z,10.30
2019-02-27T06:41:50.395Z,10.48
2019-02-27T06:42:57.926Z,10.72
2019-02-27T06:44:06.927Z,11.05
2019-02-27T06:45:26.445Z,9.77
2019-02-27T06:46:29.165Z,9.78
2019-02-27T06:49:07.271Z,11.30
2019-02-27T06:50:16.709Z,10.55
2019-02-27T06:51:26.348Z,10.63
2019-02-27T06:52:47.073Z,11.38
2019-02-27T06:53:59.049Z,11.63
2019-02-27T06:55:09.675Z,10.85
2019-02-27T06:56:16.306Z,11.08
2019-02-27T06:57:26.836Z,11.25
2019-02-27T06:58:34.307Z,11.85
2019-02-27T06:59:43.833Z,10.50
2019-02-27T07:01:55.821Z,11.40
2019-02-27T07:02:42.733Z,12.10
2019-02-27T07:03:03.163Z,11.83
2019-02-27T07:04:12.101Z,11.00
2019-02-27T07:05:23.761Z,10.90
2019-02-27T07:06:32.686Z,11.35
2019-02-27T07:07:38.773Z,11.43
2019-02-27T07:09:11.584Z,10.90
2019-02-27T07:12:42.359Z,11.48
2019-02-27T07:13:10.279Z,10.10
2019-02-27T07:14:20.029Z,10.20
2019-02-27T07:15:30.051Z,10.32
2019-02-27T07:16:42.966Z,11.43
2019-02-27T07:17:52.333Z,10.55
2019-02-27T07:19:13.221Z,11.08
2019-02-27T07:20:24.408Z,11.83
2019-02-27T07:21:32.858Z,10.85
2019-02-27T07:22:54.626Z,10.72
2019-02-27T07:24:01.083Z,11.45
2019-02-27T07:25:09.894Z,11.68
2019-02-27T07:26:16.551Z,10.58
2019-02-27T07:27:21.062Z,11.83
2019-02-27T07:28:30.409Z,11.65
2019-02-27T07:29:37.933Z,11.07
2019-02-27T07:30:43.273Z,11.30
2019-02-27T07:31:52.090Z,11.93
2019-02-27T07:32:57.101Z,10.95
2019-02-27T07:34:01.979Z,11.85
2019-02-27T07:35:10.573Z,11.33
2019-02-27T07:36:23.178Z,10.65
2019-02-27T07:37:33.505Z,10.90
2019-02-27T07:40:07.902Z,11.10
2019-02-27T07:41:17.573Z,10.28
2019-02-27T07:42:32.095Z,11.00
2019-02-27T07:43:42.140Z,10.82
2019-02-27T07:44:52.214Z,11.38
2019-02-27T07:46:00.635Z,11.05
2019-02-27T07:47:13.120Z,11.83
2019-02-27T07:48:30.634Z,12.10
2019-02-27T07:49:36.576Z,10.90
2019-02-27T07:51:00.966Z,11.30
2019-02-27T07:52:09.355Z,11.35
2019-02-27T07:53:25.667Z,11.55
2019-02-27T07:54:34.578Z,11.70
2019-02-27T07:55:44.023Z,11.83
2019-02-27T07:56:56.897Z,10.68
2019-02-27T07:58:06.989Z,11.20
2019-02-27T07:59:27.337Z,10.78
2019-02-27T08:00:27.879Z,12.00
2019-02-27T08:03:08.989Z,11.12
2019-02-27T08:04:19.038Z,11.00
2019-02-27T08:05:21.186Z,10.58
2019-02-27T08:06:31.336Z,10.93
2019-02-27T08:07:54.075Z,11.85
2019-02-27T08:08:57.213Z,11.33
2019-02-27T08:10:17.065Z,10.68
2019-02-27T08:11:38.867Z,11.10
2019-02-27T08:14:28.665Z,11.15
2019-02-27T08:15:37.551Z,10.75
2019-02-27T08:16:56.893Z,11.18
2019-02-27T08:17:59.506Z,11.22
2019-02-27T08:19:11.549Z,11.65
2019-02-27T08:20:23.829Z,11.35
2019-02-27T08:21:41.028Z,11.10
2019-02-27T08:22:39.455Z,11.48
2019-02-27T08:23:48.050Z,11.30
2019-02-27T08:25:10.323Z,11.83
2019-02-27T08:26:19.909Z,10.78
2019-02-27T08:27:36.044Z,10.80
2019-02-27T08:28:47.882Z,10.58
2019-02-27T08:29:52.399Z,10.55
2019-02-27T08:30:57.112Z,9.70
2019-02-27T08:32:01.925Z,10.20
2019-02-27T08:33:15.080Z,10.68
2019-02-27T08:34:34.659Z,11.20
2019-02-27T08:35:42.809Z,9.93
2019-02-27T08:36:59.203Z,11.28
2019-02-27T08:38:05.665Z,9.38
2019-02-27T08:39:43.603Z,10.25
2019-02-27T08:40:24.599Z,10.80
2019-02-27T08:41:42.044Z,10.65
2019-02-27T08:42:54.320Z,10.40
2019-02-27T08:44:02.636Z,10.48
2019-02-27T08:45:20.083Z,10.65
2019-02-27T08:46:28.087Z,10.08
2019-02-27T08:47:51.962Z,9.98
2019-02-27T08:49:05.739Z,11.15
2019-02-27T08:50:11.520Z,9.68
2019-02-27T08:51:18.252Z,10.10
2019-02-27T08:52:49.186Z,10.78
2019-02-27T08:53:52.171Z,9.25
2019-02-27T08:55:05.361Z,9.55
2019-02-27T08:56:12.958Z,8.70
2019-02-27T08:57:21.773Z,8.38
2019-02-27T08:58:39.083Z,9.15
2019-02-27T08:59:54.864Z,8.75
2019-02-27T09:02:39.641Z,10.82
2019-02-27T09:03:51.610Z,10.93
2019-02-27T09:05:04.514Z,11.00
2019-02-27T09:06:27.293Z,10.55
2019-02-27T09:07:33.926Z,9.85
2019-02-27T09:11:27.815Z,9.33
2019-02-27T09:11:32.545Z,9.73
2019-02-27T09:11:33.020Z,8.55
2019-02-27T09:12:48.822Z,9.38
2019-02-27T09:15:42.774Z,10.45
2019-02-27T09:16:44.074Z,11.63
2019-02-27T09:17:59.151Z,10.38
2019-02-27T09:20:34.652Z,11.28
2019-02-27T09:21:44.885Z,11.45
2019-02-27T09:22:56.461Z,11.95
2019-02-27T09:24:10.088Z,12.63
2019-02-27T09:28:09.210Z,11.12
2019-02-27T09:29:23.646Z,11.43
2019-02-27T09:30:35.425Z,12.20
2019-02-27T09:31:50.473Z,12.20
2019-02-27T09:32:50.518Z,11.00
2019-02-27T09:33:58.781Z,10.95
2019-02-27T09:35:06.879Z,11.10
2019-02-27T09:36:10.350Z,10.30
2019-02-27T09:37:23.189Z,10.48
2019-02-27T09:38:41.885Z,11.50
2019-02-27T09:40:05.836Z,12.73
2019-02-27T09:41:00.815Z,11.70
2019-02-27T09:42:25.199Z,12.65
2019-02-27T09:43:32.630Z,10.72
2019-02-27T09:44:46.466Z,11.35
2019-02-27T09:45:53.408Z,11.18
2019-02-27T09:47:06.145Z,11.93
2019-02-27T09:50:05.567Z,11.20
2019-02-27T09:51:50.138Z,10.35
2019-02-27T09:52:33.224Z,10.82
2019-02-27T09:53:44.808Z,10.63
2019-02-27T09:54:54.940Z,11.35
2019-02-27T09:56:08.933Z,9.78
2019-02-27T09:57:16.449Z,10.23
2019-02-27T09:58:24.107Z,10.40
2019-02-27T09:59:51.134Z,10.72
2019-02-27T10:01:07.440Z,10.00
2019-02-27T10:02:14.726Z,11.90
2019-02-27T10:03:23.935Z,11.57
2019-02-27T10:04:38.951Z,11.57
2019-02-27T10:05:43.209Z,10.50
2019-02-27T10:07:03.158Z,10.93
2019-02-27T10:08:11.798Z,10.58
2019-02-27T10:09:28.290Z,10.93
2019-02-27T10:11:07.817Z,10.38
2019-02-27T10:11:48.442Z,10.63
2019-02-27T10:14:26.543Z,9.60
2019-02-27T10:16:03.550Z,9.70
2019-02-27T10:16:42.634Z,9.43
2019-02-27T10:18:01.079Z,9.55
2019-02-27T10:18:58.383Z,9.30
2019-02-27T10:20:11.996Z,9.68
2019-02-27T10:21:16.588Z,9.43
2019-02-27T10:22:24.810Z,9.45
2019-02-27T10:23:31.145Z,9.33
2019-02-27T10:24:37.595Z,8.95
2019-02-27T10:25:46.242Z,8.53
2019-02-27T10:26:54.818Z,9.20
2019-02-27T10:28:05.754Z,8.73
2019-02-27T10:29:13.401Z,8.30
2019-02-27T10:30:22.085Z,8.40
2019-02-27T10:31:27.018Z,8.28
2019-02-27T10:32:36.699Z,8.88
2019-02-27T10:35:18.321Z,8.58
2019-02-27T10:36:25.913Z,9.18
2019-02-27T10:37:38.470Z,9.03
2019-02-27T10:38:45.549Z,8.45
2019-02-27T10:40:02.525Z,8.18
2019-02-27T10:41:10.350Z,8.85
2019-02-27T10:43:44.397Z,7.72
2019-02-27T10:44:54.340Z,8.18
2019-02-27T10:46:12.041Z,8.23
2019-02-27T10:47:19.503Z,8.40
2019-02-27T10:48:34.452Z,8.65
2019-02-27T10:49:52.196Z,7.97
2019-02-27T10:51:04.062Z,8.10
2019-02-27T10:52:12.514Z,8.53
2019-02-27T10:53:32.999Z,9.43
2019-02-27T10:54:39.914Z,8.88
2019-02-27T10:56:11.408Z,10.18
2019-02-27T10:57:21.178Z,11.60
2019-02-27T11:00:05.902Z,10.48
2019-02-27T11:02:52.672Z,11.00
2019-02-27T11:04:05.038Z,10.03
2019-02-27T11:05:18.406Z,9.80
2019-02-27T11:06:34.041Z,9.85
2019-02-27T11:09:12.768Z,9.25
2019-02-27T11:10:19.494Z,9.93
2019-02-27T11:12:04.090Z,10.48
2019-02-27T11:13:19.524Z,11.38
2019-02-27T11:15:58.021Z,12.50
2019-02-27T11:18:17.341Z,11.18
2019-02-27T11:19:20.216Z,11.05
2019-02-27T11:20:56.729Z,11.22
2019-02-27T11:21:46.946Z,9.43
2019-02-27T11:25:45.851Z,9.05
2019-02-27T11:27:12.578Z,9.10
2019-02-27T11:28:28.826Z,8.00
2019-02-27T11:29:26.880Z,8.13
2019-02-27T11:31:01.189Z,7.92
2019-02-27T11:31:57.005Z,5.87
2019-02-27T11:33:06.078Z,6.50
2019-02-27T11:34:13.660Z,6.75
2019-02-27T11:36:38.798Z,6.92
2019-02-27T11:37:16.415Z,6.92
2019-02-27T11:39:11.911Z,6.78
2019-02-27T11:40:30.434Z,6.37
2019-02-27T11:41:53.128Z,6.08
2019-02-27T11:42:50.348Z,6.50
2019-02-27T11:44:08.453Z,6.65
2019-02-27T11:46:23.718Z,6.30
2019-02-27T11:47:34.018Z,6.12
2019-02-27T11:48:57.075Z,6.08
2019-02-27T11:51:03.330Z,5.62
2019-02-27T11:51:22.832Z,6.80
2019-02-27T11:52:48.267Z,6.30
2019-02-27T11:54:01.425Z,7.03
2019-02-27T11:55:20.759Z,5.95
2019-02-27T11:56:36.026Z,6.35
2019-02-27T11:57:45.458Z,5.85
2019-02-27T11:58:59.796Z,5.53
2019-02-27T12:00:21.233Z,6.03
2019-02-27T12:04:40.244Z,5.80
2019-02-27T12:04:56.607Z,5.87
2019-02-27T12:06:15.416Z,6.17
2019-02-27T12:11:15.966Z,6.10
2019-02-27T12:11:26.504Z,6.72
2019-02-27T12:14:08.998Z,7.28
2019-02-27T12:16:48.602Z,7.28
2019-02-27T12:18:08.101Z,7.05
2019-02-27T12:22:23.278Z,6.72
2019-02-27T12:25:29.833Z,7.42
2019-02-27T12:30:43.646Z,6.05
2019-02-27T12:36:09.036Z,5.97
2019-02-27T12:37:28.117Z,5.90
2019-02-27T12:38:31.946Z,5.70
2019-02-27T12:49:59.401Z,5.12
2019-02-27T12:52:56.414Z,4.87
2019-02-27T12:58:47.543Z,5.60
2019-02-27T13:00:01.015Z,4.60
2019-02-27T13:01:11.366Z,5.08
2019-02-27T13:02:34.620Z,4.80
2019-02-27T13:03:33.592Z,5.20
2019-02-27T13:04:52.464Z,4.85
2019-02-27T13:08:36.961Z,4.85
2019-02-27T13:10:02.671Z,4.92
2019-02-27T13:11:17.160Z,4.62
2019-02-27T13:12:21.854Z,5.60
2019-02-27T13:13:36.950Z,5.28
2019-02-27T13:15:06.379Z,4.60
2019-02-27T13:22:29.144Z,4.75
2019-02-27T13:23:28.790Z,5.40
2019-02-27T13:26:06.253Z,5.15
2019-02-27T13:27:16.765Z,4.92
2019-02-27T13:28:25.340Z,5.35
2019-02-27T13:29:34.150Z,4.62
2019-02-27T13:30:43.041Z,6.00
2019-02-27T13:31:52.107Z,5.30
2019-02-27T13:33:01.248Z,5.25
2019-02-27T13:34:06.744Z,5.72
2019-02-27T13:36:20.188Z,5.22
2019-02-27T13:36:27.527Z,5.50
2019-02-27T13:38:55.166Z,5.47
2019-02-27T13:39:11.687Z,5.20
2019-02-27T13:41:42.486Z,5.20
2019-02-27T13:43:00.993Z,7.05
2019-02-27T13:44:14.115Z,7.00
2019-02-27T13:45:47.319Z,6.55
2019-02-27T13:47:39.906Z,6.10
2019-02-27T13:49:07.509Z,6.70
2019-02-27T13:51:40.304Z,6.50
2019-02-27T13:58:35.673Z,6.30
2019-02-27T14:08:02.904Z,6.50
2019-02-27T14:10:53.307Z,6.75
2019-02-27T14:13:35.141Z,6.65
2019-02-27T14:17:44.459Z,7.05
2019-02-27T14:19:05.295Z,7.00
2019-02-27T14:21:56.138Z,7.00
2019-02-27T14:24:29.313Z,7.45
2019-02-27T14:28:01.796Z,7.58
2019-02-27T14:28:29.979Z,7.15
2019-02-27T14:29:54.975Z,7.20
2019-02-27T14:31:09.989Z,7.62
2019-02-27T14:32:26.383Z,7.03
2019-02-27T14:33:47.300Z,7.75
2019-02-27T14:36:16.351Z,8.38
2019-02-27T14:37:32.652Z,8.20
2019-02-27T14:38:44.426Z,7.30
2019-02-27T14:40:10.203Z,8.18
2019-02-27T14:41:18.087Z,7.80
2019-02-27T14:50:27.479Z,9.63
2019-02-27T14:52:08.373Z,9.50
2019-02-27T14:59:08.736Z,10.30
2019-02-27T15:17:28.371Z,11.73
2019-02-27T15:18:58.484Z,12.10
2019-02-27T15:20:09.868Z,12.05
2019-02-27T15:34:16.070Z,12.82
2019-02-27T15:40:34.983Z,13.32
2019-02-27T15:41:48.080Z,13.53
2019-02-27T15:42:58.858Z,13.85
2019-02-27T15:44:09.765Z,13.78
2019-02-27T15:45:20.599Z,14.30
2019-02-27T15:46:34.567Z,13.40
2019-02-27T15:50:33.532Z,13.88
2019-02-27T15:51:48.550Z,13.18
2019-02-27T15:53:14.915Z,14.73
2019-02-27T15:54:32.631Z,15.75
2019-02-27T15:55:40.227Z,14.45
2019-02-27T15:56:53.171Z,14.80
2019-02-27T15:58:04.160Z,15.00
2019-02-27T15:59:33.583Z,15.95
2019-02-27T16:00:52.514Z,14.90
2019-02-27T16:02:02.616Z,14.55
2019-02-27T16:03:11.827Z,14.70
2019-02-27T16:04:17.576Z,15.05
2019-02-27T16:05:31.429Z,15.03
2019-02-27T16:06:44.658Z,15.18
2019-02-27T16:08:03.931Z,14.30
2019-02-27T16:09:17.973Z,15.03
2019-02-27T16:10:26.356Z,13.13
2019-02-27T16:11:33.149Z,14.30
2019-02-27T16:12:44.580Z,13.62
2019-02-27T16:14:00.329Z,13.53
2019-02-27T16:15:19.477Z,13.08
2019-02-27T16:17:52.613Z,14.00
2019-02-27T16:19:08.061Z,13.60
2019-02-27T16:29:19.962Z,13.80
2019-02-27T16:30:34.322Z,13.70
2019-02-27T16:31:41.268Z,14.20
2019-02-27T16:37:32.391Z,14.53
2019-02-27T16:40:17.626Z,15.03
2019-02-27T16:41:18.390Z,14.13
2019-02-27T16:42:41.941Z,14.98
2019-02-27T16:43:52.420Z,15.35
2019-02-27T16:45:04.177Z,14.70
2019-02-27T16:46:17.117Z,15.53
2019-02-27T16:49:10.909Z,15.05
2019-02-27T16:56:13.545Z,14.40
2019-02-27T16:58:38.779Z,14.87
2019-02-27T17:02:38.258Z,15.35
2019-02-27T17:04:00.191Z,14.78
2019-02-27T17:06:52.185Z,15.30
2019-02-27T17:08:29.425Z,14.30
2019-02-27T17:09:35.421Z,14.15
2019-02-27T17:10:51.713Z,15.80
2019-02-27T17:12:07.078Z,16.10
2019-02-27T17:13:19.241Z,15.28
2019-02-27T17:15:35.216Z,14.63
2019-02-27T17:16:45.520Z,14.75
2019-02-27T17:17:54.277Z,16.10
2019-02-27T17:18:59.133Z,15.50
2019-02-27T17:20:14.657Z,14.73
2019-02-27T17:23:09.269Z,15.40
2019-02-27T17:28:34.632Z,14.55
2019-02-27T17:29:48.460Z,15.58
2019-02-27T17:30:55.636Z,15.40
2019-02-27T17:33:40.460Z,15.85
2019-02-27T17:34:58.802Z,14.90
2019-02-27T17:36:31.705Z,15.70
2019-02-27T17:37:21.115Z,15.95
2019-02-27T17:38:28.656Z,15.98
2019-02-27T17:39:45.384Z,15.48
2019-02-27T17:40:55.254Z,17.02
2019-02-27T17:42:05.433Z,16.32
2019-02-27T17:43:14.086Z,16.27
2019-02-27T17:44:19.871Z,16.55
2019-02-27T17:45:30.259Z,16.20
2019-02-27T17:47:47.064Z,16.35
2019-02-27T17:48:59.138Z,17.55
2019-02-27T17:50:11.274Z,16.90
2019-02-27T17:51:15.984Z,16.50
2019-02-27T17:52:33.457Z,17.27
2019-02-27T17:53:44.421Z,17.67
2019-02-27T17:54:53.359Z,18.23
2019-02-27T17:56:05.137Z,15.90
2019-02-27T17:57:14.414Z,17.42
2019-02-27T17:58:22.049Z,17.77
2019-02-27T17:59:34.382Z,17.35
2019-02-27T18:00:51.056Z,17.82
2019-02-27T18:01:58.697Z,17.02
2019-02-27T18:03:12.666Z,17.67
2019-02-27T18:04:18.910Z,18.75
2019-02-27T18:05:25.300Z,17.42
2019-02-27T18:06:34.877Z,18.87
2019-02-27T18:07:42.755Z,18.20
2019-02-27T18:08:51.556Z,19.27
2019-02-27T18:09:58.370Z,18.25
2019-02-27T18:11:15.613Z,19.65
2019-02-27T18:12:35.525Z,19.32
2019-02-27T18:13:47.673Z,18.62
2019-02-27T18:14:54.131Z,19.35
2019-02-27T18:16:04.565Z,20.95
2019-02-27T18:17:11.862Z,20.68
2019-02-27T18:18:20.070Z,20.23
2019-02-27T18:19:30.984Z,20.75
2019-02-27T18:20:40.772Z,21.48
2019-02-27T18:21:46.359Z,20.23
2019-02-27T18:22:53.655Z,21.50
2019-02-27T18:24:08.496Z,21.97
2019-02-27T18:25:18.254Z,20.52
2019-02-27T18:26:25.515Z,21.10
2019-02-27T18:27:37.657Z,22.20
2019-02-27T18:28:43.551Z,20.10
2019-02-27T18:29:49.587Z,21.20
2019-02-27T18:30:58.182Z,21.77
2019-02-27T18:32:12.950Z,21.57
2019-02-27T18:33:20.637Z,22.35
2019-02-27T18:34:27.961Z,22.98
2019-02-27T18:35:35.419Z,22.77
2019-02-27T18:36:51.276Z,22.42
2019-02-27T18:37:57.671Z,23.18
2019-02-27T18:39:09.347Z,22.93
2019-02-27T18:40:20.342Z,23.02
2019-02-27T18:41:25.099Z,24.77
2019-02-27T18:42:36.363Z,22.25
2019-02-27T18:43:42.318Z,25.00
2019-02-27T18:44:48.171Z,22.42
2019-02-27T18:45:54.609Z,25.12
2019-02-27T18:47:12.382Z,23.35
2019-02-27T18:48:20.554Z,24.23
2019-02-27T18:49:31.038Z,25.00
2019-02-27T18:50:37.764Z,25.68
2019-02-27T18:51:42.180Z,25.45
2019-02-27T18:52:59.563Z,26.52
2019-02-27T18:54:11.509Z,26.50
2019-02-27T18:55:21.399Z,26.97
2019-02-27T18:56:30.477Z,27.35
2019-02-27T18:57:39.076Z,27.25
2019-02-27T19:01:29.934Z,27.75
2019-02-27T19:01:54.303Z,28.32
2019-02-27T19:03:07.321Z,27.52
2019-02-27T19:04:45.120Z,29.12
2019-02-27T19:06:00.950Z,28.00
2019-02-27T19:07:02.341Z,28.98
2019-02-27T19:08:11.936Z,28.95
2019-02-27T19:09:21.665Z,31.07
2019-02-27T19:10:31.239Z,30.25
2019-02-27T19:11:37.895Z,29.75
2019-02-27T19:12:48.662Z,29.77
2019-02-27T19:13:54.206Z,31.25
2019-02-27T19:15:00.307Z,30.82
2019-02-27T19:16:11.226Z,33.02
2019-02-27T19:17:20.482Z,32.60
2019-02-27T19:18:28.001Z,32.03
2019-02-27T19:19:40.125Z,33.55
2019-02-27T19:20:48.094Z,33.33
2019-02-27T19:22:07.543Z,34.15
2019-02-27T19:23:17.851Z,32.73
2019-02-27T19:24:32.506Z,33.90
2019-02-27T19:25:37.741Z,33.05
2019-02-27T19:26:44.362Z,33.67
2019-02-27T19:27:50.666Z,36.05
2019-02-27T19:29:04.650Z,36.38
2019-02-27T19:30:14.976Z,34.73
2019-02-27T19:32:24.412Z,33.70
2019-02-27T19:33:32.545Z,34.85
2019-02-27T19:34:37.847Z,35.10
2019-02-27T19:35:56.234Z,35.52
2019-02-27T19:36:52.883Z,37.10
2019-02-27T19:37:57.247Z,37.38
2019-02-27T19:39:02.641Z,35.75
2019-02-27T19:40:13.213Z,39.15
2019-02-27T19:41:21.098Z,38.55
2019-02-27T19:42:25.497Z,38.35
2019-02-27T19:43:31.918Z,37.20
2019-02-27T19:44:37.397Z,38.45
2019-02-27T19:45:46.537Z,38.02
2019-02-27T19:46:53.911Z,38.48
2019-02-27T19:48:10.435Z,39.60
2019-02-27T19:49:14.078Z,39.55
2019-02-27T19:50:20.087Z,39.25
2019-02-27T19:51:25.150Z,41.08
2019-02-27T19:52:33.562Z,39.25
2019-02-27T19:53:42.674Z,39.65
2019-02-27T19:54:52.613Z,38.92
2019-02-27T19:56:01.551Z,41.35
2019-02-27T19:57:10.549Z,41.60
2019-02-27T19:58:30.807Z,39.53
2019-02-27T19:59:41.614Z,40.03
2019-02-27T20:00:48.806Z,39.83
2019-02-27T20:01:53.862Z,42.53
2019-02-27T20:03:01.139Z,43.45
2019-02-27T20:04:09.068Z,42.65
2019-02-27T20:05:16.396Z,45.43
2019-02-27T20:07:32.897Z,42.03
2019-02-27T20:08:44.662Z,41.30
2019-02-27T20:09:47.710Z,43.92
2019-02-27T20:10:53.432Z,45.05
2019-02-27T20:12:04.127Z,44.50
2019-02-27T20:13:15.500Z,47.17
2019-02-27T20:14:25.362Z,45.80
2019-02-27T20:15:32.567Z,43.90
2019-02-27T20:16:45.180Z,44.45
2019-02-27T20:17:53.908Z,44.73
2019-02-27T20:19:00.958Z,44.80
2019-02-27T20:20:29.939Z,45.58
2019-02-27T20:21:45.076Z,46.83
2019-02-27T20:23:01.422Z,46.90
2019-02-27T20:24:14.237Z,46.88
2019-02-27T20:26:51.405Z,46.20
2019-02-27T20:28:17.127Z,47.80
2019-02-27T20:29:39.460Z,47.33
2019-02-27T20:30:44.796Z,48.70
2019-02-27T20:31:51.523Z,48.87
2019-02-27T20:32:59.858Z,50.30
2019-02-27T20:34:14.096Z,48.13
2019-02-27T20:35:29.829Z,49.53
2019-02-27T20:36:44.522Z,49.42
2019-02-27T20:38:02.139Z,49.15
2019-02-27T20:39:14.810Z,50.33
2019-02-27T20:40:33.779Z,47.98
2019-02-27T20:41:44.058Z,51.55
2019-02-27T20:42:58.025Z,50.30
2019-02-27T20:44:06.561Z,50.73
2019-02-27T20:45:18.418Z,51.02
2019-02-27T20:46:49.299Z,48.45
2019-02-27T20:47:50.746Z,49.58
2019-02-27T20:49:00.357Z,50.70
2019-02-27T20:51:02.633Z,50.10
2019-02-27T20:51:42.165Z,50.20
2019-02-27T20:53:22.469Z,50.78
2019-02-27T20:55:24.757Z,47.03
2019-02-27T20:55:58.560Z,51.45
2019-02-27T20:57:20.875Z,49.93
2019-02-27T20:58:37.464Z,52.13